sensor_id;sensor_type;location;lat;lon;timestamp;temperature;humidity
21417;DHT22;10869;52.238;10.716;2024-01-30T00:01:58;7.00;99.90
21417;DHT22;10869;52.238;10.716;2024-01-30T00:04:24;7.00;99.90
21417;DHT22;10869;52.238;10.716;2024-01-30T00:06:51;7.00;99.90
21417;DHT22;10869;52.238;10.716;2024-01-30T00:09:18;7.00;99.90
21417;DHT22;10869;52.238;10.716;2024-01-30T00:11:45;7.00;99.90
21417;DHT22;10869;52.238;10.716;2024-01-30T00:14:11;7.00;99.90
21417;DHT22;10869;52.238;10.716;2024-01-30T00:16:37;7.00;99.90
21417;DHT22;10869;52.238;10.716;2024-01-30T00:19:02;7.00;99.90
21417;DHT22;10869;52.238;10.716;2024-01-30T00:21:29;7.10;99.90
21417;DHT22;10869;52.238;10.716;2024-01-30T00:23:55;7.10;99.90
21417;DHT22;10869;52.238;10.716;2024-01-30T00:26:20;7.00;99.90
21417;DHT22;10869;52.238;10.716;2024-01-30T00:28:46;7.10;99.90
21417;DHT22;10869;52.238;10.716;2024-01-30T00:31:12;7.10;99.90
21417;DHT22;10869;52.238;10.716;2024-01-30T00:33:41;7.10;99.90
21417;DHT22;10869;52.238;10.716;2024-01-30T00:36:08;7.00;99.90
21417;DHT22;10869;52.238;10.716;2024-01-30T00:38:35;7.00;99.90
21417;DHT22;10869;52.238;10.716;2024-01-30T00:41:01;7.10;99.90
21417;DHT22;10869;52.238;10.716;2024-01-30T00:43:28;7.10;99.90
21417;DHT22;10869;52.238;10.716;2024-01-30T00:45:54;7.10;99.90
21417;DHT22;10869;52.238;10.716;2024-01-30T00:48:20;7.10;99.90
21417;DHT22;10869;52.238;10.716;2024-01-30T00:50:46;7.10;99.90
21417;DHT22;10869;52.238;10.716;2024-01-30T00:53:12;7.00;99.90
21417;DHT22;10869;52.238;10.716;2024-01-30T00:55:38;7.00;99.90
21417;DHT22;10869;52.238;10.716;2024-01-30T00:58:04;7.00;99.90
21417;DHT22;10869;52.238;10.716;2024-01-30T01:00:30;7.00;99.90
21417;DHT22;10869;52.238;10.716;2024-01-30T01:02:57;7.00;99.90
21417;DHT22;10869;52.238;10.716;2024-01-30T01:05:23;7.00;99.90
21417;DHT22;10869;52.238;10.716;2024-01-30T01:07:49;6.90;99.90
21417;DHT22;10869;52.238;10.716;2024-01-30T01:10:18;6.90;99.90
21417;DHT22;10869;52.238;10.716;2024-01-30T01:12:48;6.90;99.90
21417;DHT22;10869;52.238;10.716;2024-01-30T01:15:14;6.90;99.90
21417;DHT22;10869;52.238;10.716;2024-01-30T01:17:40;6.80;99.90
21417;DHT22;10869;52.238;10.716;2024-01-30T01:20:06;6.90;99.90
21417;DHT22;10869;52.238;10.716;2024-01-30T01:22:33;7.00;99.90
21417;DHT22;10869;52.238;10.716;2024-01-30T01:24:59;7.00;99.90
21417;DHT22;10869;52.238;10.716;2024-01-30T01:27:25;7.00;99.90
21417;DHT22;10869;52.238;10.716;2024-01-30T01:29:52;7.00;99.90
21417;DHT22;10869;52.238;10.716;2024-01-30T01:32:18;7.00;99.90
21417;DHT22;10869;52.238;10.716;2024-01-30T01:34:44;7.00;99.90
21417;DHT22;10869;52.238;10.716;2024-01-30T01:37:10;7.00;99.90
21417;DHT22;10869;52.238;10.716;2024-01-30T01:39:35;6.90;99.90
21417;DHT22;10869;52.238;10.716;2024-01-30T01:42:01;6.90;99.90
21417;DHT22;10869;52.238;10.716;2024-01-30T01:44:27;6.90;99.90
21417;DHT22;10869;52.238;10.716;2024-01-30T01:46:54;6.90;99.90
21417;DHT22;10869;52.238;10.716;2024-01-30T01:49:24;6.90;99.90
21417;DHT22;10869;52.238;10.716;2024-01-30T01:51:51;6.90;99.90
21417;DHT22;10869;52.238;10.716;2024-01-30T01:57:42;6.90;99.90
21417;DHT22;10869;52.238;10.716;2024-01-30T02:00:08;6.90;99.90
21417;DHT22;10869;52.238;10.716;2024-01-30T02:02:36;6.80;99.90
21417;DHT22;10869;52.238;10.716;2024-01-30T02:05:03;6.80;99.90
21417;DHT22;10869;52.238;10.716;2024-01-30T02:07:29;6.90;99.90
21417;DHT22;10869;52.238;10.716;2024-01-30T02:09:55;6.80;99.90
21417;DHT22;10869;52.238;10.716;2024-01-30T02:12:21;6.80;99.90
21417;DHT22;10869;52.238;10.716;2024-01-30T02:14:48;6.80;99.90
21417;DHT22;10869;52.238;10.716;2024-01-30T02:17:17;6.80;99.90
21417;DHT22;10869;52.238;10.716;2024-01-30T02:19:43;6.80;99.90
21417;DHT22;10869;52.238;10.716;2024-01-30T02:22:09;6.80;99.90
21417;DHT22;10869;52.238;10.716;2024-01-30T02:24:35;6.80;99.90
21417;DHT22;10869;52.238;10.716;2024-01-30T02:27:01;6.70;99.90
21417;DHT22;10869;52.238;10.716;2024-01-30T02:29:27;6.80;99.90
21417;DHT22;10869;52.238;10.716;2024-01-30T02:31:52;6.80;99.90
21417;DHT22;10869;52.238;10.716;2024-01-30T02:34:19;6.80;99.90
21417;DHT22;10869;52.238;10.716;2024-01-30T02:36:45;6.80;99.90
21417;DHT22;10869;52.238;10.716;2024-01-30T02:39:11;6.80;99.90
21417;DHT22;10869;52.238;10.716;2024-01-30T02:41:37;6.80;99.90
21417;DHT22;10869;52.238;10.716;2024-01-30T02:44:03;6.80;99.90
21417;DHT22;10869;52.238;10.716;2024-01-30T02:46:29;6.80;99.90
21417;DHT22;10869;52.238;10.716;2024-01-30T02:48:55;6.70;99.90
21417;DHT22;10869;52.238;10.716;2024-01-30T02:51:21;6.70;99.90
21417;DHT22;10869;52.238;10.716;2024-01-30T02:53:47;6.70;99.90
21417;DHT22;10869;52.238;10.716;2024-01-30T02:56:13;6.60;99.90
21417;DHT22;10869;52.238;10.716;2024-01-30T02:58:42;6.60;99.90
21417;DHT22;10869;52.238;10.716;2024-01-30T03:01:08;6.60;99.90
21417;DHT22;10869;52.238;10.716;2024-01-30T03:03:33;6.60;99.90
21417;DHT22;10869;52.238;10.716;2024-01-30T03:06:02;6.60;99.90
21417;DHT22;10869;52.238;10.716;2024-01-30T03:08:28;6.60;99.90
21417;DHT22;10869;52.238;10.716;2024-01-30T03:10:54;6.60;99.90
21417;DHT22;10869;52.238;10.716;2024-01-30T03:13:21;6.60;99.90
21417;DHT22;10869;52.238;10.716;2024-01-30T03:15:48;6.60;99.90
21417;DHT22;10869;52.238;10.716;2024-01-30T03:18:14;6.60;99.90
21417;DHT22;10869;52.238;10.716;2024-01-30T03:20:40;6.50;99.90
21417;DHT22;10869;52.238;10.716;2024-01-30T03:23:06;6.60;99.90
21417;DHT22;10869;52.238;10.716;2024-01-30T03:25:31;6.60;99.90
21417;DHT22;10869;52.238;10.716;2024-01-30T03:27:57;6.60;99.90
21417;DHT22;10869;52.238;10.716;2024-01-30T03:30:23;6.60;99.90
21417;DHT22;10869;52.238;10.716;2024-01-30T03:32:49;6.60;99.90
21417;DHT22;10869;52.238;10.716;2024-01-30T03:35:14;6.60;99.90
21417;DHT22;10869;52.238;10.716;2024-01-30T03:37:40;6.60;99.90
21417;DHT22;10869;52.238;10.716;2024-01-30T03:40:06;6.70;99.90
21417;DHT22;10869;52.238;10.716;2024-01-30T03:42:32;6.70;99.90
21417;DHT22;10869;52.238;10.716;2024-01-30T03:44:58;6.70;99.90
21417;DHT22;10869;52.238;10.716;2024-01-30T03:47:24;6.70;99.90
21417;DHT22;10869;52.238;10.716;2024-01-30T03:49:50;6.70;99.90
21417;DHT22;10869;52.238;10.716;2024-01-30T03:55:37;6.70;99.90
21417;DHT22;10869;52.238;10.716;2024-01-30T03:58:03;6.70;99.90
21417;DHT22;10869;52.238;10.716;2024-01-30T04:00:29;6.70;99.90
21417;DHT22;10869;52.238;10.716;2024-01-30T04:02:55;6.70;99.90
21417;DHT22;10869;52.238;10.716;2024-01-30T04:05:20;6.70;99.90
21417;DHT22;10869;52.238;10.716;2024-01-30T04:07:46;6.70;99.90
21417;DHT22;10869;52.238;10.716;2024-01-30T04:10:12;6.70;99.90
21417;DHT22;10869;52.238;10.716;2024-01-30T04:12:38;6.70;99.90
21417;DHT22;10869;52.238;10.716;2024-01-30T04:15:04;6.60;99.90
21417;DHT22;10869;52.238;10.716;2024-01-30T04:17:30;6.60;99.90
21417;DHT22;10869;52.238;10.716;2024-01-30T04:19:56;6.60;99.90
21417;DHT22;10869;52.238;10.716;2024-01-30T04:22:21;6.50;99.90
21417;DHT22;10869;52.238;10.716;2024-01-30T04:24:47;6.50;99.90
21417;DHT22;10869;52.238;10.716;2024-01-30T04:27:13;6.50;99.90
21417;DHT22;10869;52.238;10.716;2024-01-30T04:29:39;6.50;99.90
21417;DHT22;10869;52.238;10.716;2024-01-30T04:32:04;6.50;99.90
21417;DHT22;10869;52.238;10.716;2024-01-30T04:34:30;6.60;99.90
21417;DHT22;10869;52.238;10.716;2024-01-30T04:36:57;6.60;99.90
21417;DHT22;10869;52.238;10.716;2024-01-30T04:39:23;6.60;99.90
21417;DHT22;10869;52.238;10.716;2024-01-30T04:41:48;6.60;99.90
21417;DHT22;10869;52.238;10.716;2024-01-30T04:44:14;6.60;99.90
21417;DHT22;10869;52.238;10.716;2024-01-30T04:46:40;6.70;99.90
21417;DHT22;10869;52.238;10.716;2024-01-30T04:49:06;6.70;99.90
21417;DHT22;10869;52.238;10.716;2024-01-30T04:51:34;6.70;99.90
21417;DHT22;10869;52.238;10.716;2024-01-30T04:54:00;6.70;99.90
21417;DHT22;10869;52.238;10.716;2024-01-30T04:56:26;6.70;99.90
21417;DHT22;10869;52.238;10.716;2024-01-30T04:58:52;6.60;99.90
21417;DHT22;10869;52.238;10.716;2024-01-30T05:01:17;6.70;99.90
21417;DHT22;10869;52.238;10.716;2024-01-30T05:03:43;6.70;99.90
21417;DHT22;10869;52.238;10.716;2024-01-30T05:06:09;6.70;99.90
21417;DHT22;10869;52.238;10.716;2024-01-30T05:08:35;6.80;99.90
21417;DHT22;10869;52.238;10.716;2024-01-30T05:11:05;6.80;99.90
21417;DHT22;10869;52.238;10.716;2024-01-30T05:13:31;6.80;99.90
21417;DHT22;10869;52.238;10.716;2024-01-30T05:15:57;6.80;99.90
21417;DHT22;10869;52.238;10.716;2024-01-30T05:18:23;6.80;99.90
21417;DHT22;10869;52.238;10.716;2024-01-30T05:20:52;6.80;99.90
21417;DHT22;10869;52.238;10.716;2024-01-30T05:23:17;6.80;99.90
21417;DHT22;10869;52.238;10.716;2024-01-30T05:25:43;6.90;99.90
21417;DHT22;10869;52.238;10.716;2024-01-30T05:28:09;6.80;99.90
21417;DHT22;10869;52.238;10.716;2024-01-30T05:30:35;6.90;99.90
21417;DHT22;10869;52.238;10.716;2024-01-30T05:33:00;6.80;99.90
21417;DHT22;10869;52.238;10.716;2024-01-30T05:35:26;6.90;99.90
21417;DHT22;10869;52.238;10.716;2024-01-30T05:37:52;6.90;99.90
21417;DHT22;10869;52.238;10.716;2024-01-30T05:40:18;6.90;99.90
21417;DHT22;10869;52.238;10.716;2024-01-30T05:42:43;6.90;99.90
21417;DHT22;10869;52.238;10.716;2024-01-30T05:45:09;6.90;99.90
21417;DHT22;10869;52.238;10.716;2024-01-30T05:47:35;6.90;99.90
21417;DHT22;10869;52.238;10.716;2024-01-30T05:50:01;6.90;99.90
21417;DHT22;10869;52.238;10.716;2024-01-30T05:52:27;6.90;99.90
21417;DHT22;10869;52.238;10.716;2024-01-30T05:54:52;6.90;99.90
21417;DHT22;10869;52.238;10.716;2024-01-30T05:57:21;6.90;99.90
21417;DHT22;10869;52.238;10.716;2024-01-30T05:59:47;6.90;99.90
21417;DHT22;10869;52.238;10.716;2024-01-30T06:02:13;6.90;99.90
21417;DHT22;10869;52.238;10.716;2024-01-30T06:04:40;6.90;99.90
21417;DHT22;10869;52.238;10.716;2024-01-30T06:07:06;6.90;99.90
21417;DHT22;10869;52.238;10.716;2024-01-30T06:09:32;6.90;99.90
21417;DHT22;10869;52.238;10.716;2024-01-30T06:11:59;6.80;99.90
21417;DHT22;10869;52.238;10.716;2024-01-30T06:14:25;6.80;99.90
21417;DHT22;10869;52.238;10.716;2024-01-30T06:16:50;6.80;99.90
21417;DHT22;10869;52.238;10.716;2024-01-30T06:19:16;6.80;99.90
21417;DHT22;10869;52.238;10.716;2024-01-30T06:21:45;6.80;99.90
21417;DHT22;10869;52.238;10.716;2024-01-30T06:24:11;6.80;99.90
21417;DHT22;10869;52.238;10.716;2024-01-30T06:26:36;6.80;99.90
21417;DHT22;10869;52.238;10.716;2024-01-30T06:29:02;6.70;99.90
21417;DHT22;10869;52.238;10.716;2024-01-30T06:34:50;6.70;99.90
21417;DHT22;10869;52.238;10.716;2024-01-30T06:37:19;6.80;99.90
21417;DHT22;10869;52.238;10.716;2024-01-30T06:39:45;6.80;99.90
21417;DHT22;10869;52.238;10.716;2024-01-30T06:42:10;6.80;99.90
21417;DHT22;10869;52.238;10.716;2024-01-30T06:44:37;6.80;99.90
21417;DHT22;10869;52.238;10.716;2024-01-30T06:47:03;6.80;99.90
21417;DHT22;10869;52.238;10.716;2024-01-30T06:49:28;6.80;99.90
21417;DHT22;10869;52.238;10.716;2024-01-30T06:55:16;6.70;99.90
21417;DHT22;10869;52.238;10.716;2024-01-30T06:57:42;6.60;99.90
21417;DHT22;10869;52.238;10.716;2024-01-30T07:00:08;6.60;99.90
21417;DHT22;10869;52.238;10.716;2024-01-30T07:05:56;6.50;99.90
21417;DHT22;10869;52.238;10.716;2024-01-30T07:11:44;6.50;99.90
21417;DHT22;10869;52.238;10.716;2024-01-30T07:14:10;6.50;99.90
21417;DHT22;10869;52.238;10.716;2024-01-30T07:16:36;6.50;99.90
21417;DHT22;10869;52.238;10.716;2024-01-30T07:19:02;6.50;99.90
21417;DHT22;10869;52.238;10.716;2024-01-30T07:21:28;6.50;99.90
21417;DHT22;10869;52.238;10.716;2024-01-30T07:23:56;6.50;99.90
21417;DHT22;10869;52.238;10.716;2024-01-30T07:26:22;6.50;99.90
21417;DHT22;10869;52.238;10.716;2024-01-30T07:28:48;6.50;99.90
21417;DHT22;10869;52.238;10.716;2024-01-30T07:31:15;6.40;99.90
21417;DHT22;10869;52.238;10.716;2024-01-30T07:33:41;6.40;99.90
21417;DHT22;10869;52.238;10.716;2024-01-30T07:39:33;6.50;99.90
21417;DHT22;10869;52.238;10.716;2024-01-30T07:45:21;6.70;99.90
21417;DHT22;10869;52.238;10.716;2024-01-30T07:47:51;6.80;99.90
21417;DHT22;10869;52.238;10.716;2024-01-30T07:50:17;6.90;99.90
21417;DHT22;10869;52.238;10.716;2024-01-30T07:56:06;7.10;99.90
21417;DHT22;10869;52.238;10.716;2024-01-30T07:58:32;7.20;99.90
21417;DHT22;10869;52.238;10.716;2024-01-30T08:00:57;7.30;99.90
21417;DHT22;10869;52.238;10.716;2024-01-30T08:16:23;7.70;99.90
21417;DHT22;10869;52.238;10.716;2024-01-30T08:18:54;7.70;99.90
21417;DHT22;10869;52.238;10.716;2024-01-30T08:21:24;7.80;99.90
21417;DHT22;10869;52.238;10.716;2024-01-30T08:23:53;7.90;99.90
21417;DHT22;10869;52.238;10.716;2024-01-30T08:29:42;7.90;99.90
21417;DHT22;10869;52.238;10.716;2024-01-30T08:32:08;8.00;99.90
21417;DHT22;10869;52.238;10.716;2024-01-30T08:34:34;8.00;99.90
21417;DHT22;10869;52.238;10.716;2024-01-30T08:37:00;8.00;99.90
21417;DHT22;10869;52.238;10.716;2024-01-30T09:39:06;9.50;99.90
21417;DHT22;10869;52.238;10.716;2024-01-30T09:41:33;9.50;99.90
21417;DHT22;10869;52.238;10.716;2024-01-30T09:44:01;9.50;99.90
21417;DHT22;10869;52.238;10.716;2024-01-30T09:46:30;9.60;99.90
21417;DHT22;10869;52.238;10.716;2024-01-30T09:48:58;9.60;99.90
21417;DHT22;10869;52.238;10.716;2024-01-30T09:51:24;9.70;99.90
21417;DHT22;10869;52.238;10.716;2024-01-30T09:53:51;9.70;99.90
21417;DHT22;10869;52.238;10.716;2024-01-30T09:56:18;9.80;99.90
21417;DHT22;10869;52.238;10.716;2024-01-30T09:58:43;9.80;99.90
21417;DHT22;10869;52.238;10.716;2024-01-30T10:01:12;9.90;99.90
21417;DHT22;10869;52.238;10.716;2024-01-30T10:03:41;10.00;99.90
21417;DHT22;10869;52.238;10.716;2024-01-30T10:06:08;10.00;99.90
21417;DHT22;10869;52.238;10.716;2024-01-30T10:08:34;10.10;99.90
21417;DHT22;10869;52.238;10.716;2024-01-30T10:11:00;10.20;99.90
21417;DHT22;10869;52.238;10.716;2024-01-30T10:13:27;10.40;99.90
21417;DHT22;10869;52.238;10.716;2024-01-30T10:15:53;10.50;99.90
21417;DHT22;10869;52.238;10.716;2024-01-30T10:18:19;10.60;99.90
21417;DHT22;10869;52.238;10.716;2024-01-30T10:20:44;10.70;99.90
21417;DHT22;10869;52.238;10.716;2024-01-30T10:56:43;11.30;99.90
21417;DHT22;10869;52.238;10.716;2024-01-30T11:30:37;11.20;99.90
21417;DHT22;10869;52.238;10.716;2024-01-30T11:36:26;11.10;99.90
21417;DHT22;10869;52.238;10.716;2024-01-30T11:38:53;11.00;99.90
21417;DHT22;10869;52.238;10.716;2024-01-30T11:44:46;10.90;99.90
21417;DHT22;10869;52.238;10.716;2024-01-30T11:52:22;10.90;99.90
21417;DHT22;10869;52.238;10.716;2024-01-30T11:54:48;10.90;99.90
21417;DHT22;10869;52.238;10.716;2024-01-30T12:04:58;11.00;99.90
21417;DHT22;10869;52.238;10.716;2024-01-30T12:07:26;10.90;99.90
21417;DHT22;10869;52.238;10.716;2024-01-30T12:09:53;10.90;99.90
21417;DHT22;10869;52.238;10.716;2024-01-30T12:12:26;11.00;99.90
21417;DHT22;10869;52.238;10.716;2024-01-30T12:14:56;11.00;99.90
21417;DHT22;10869;52.238;10.716;2024-01-30T12:22:41;11.00;99.90
21417;DHT22;10869;52.238;10.716;2024-01-30T12:25:15;11.00;99.90
21417;DHT22;10869;52.238;10.716;2024-01-30T12:27:49;11.00;99.90
21417;DHT22;10869;52.238;10.716;2024-01-30T12:35:37;11.00;99.90
21417;DHT22;10869;52.238;10.716;2024-01-30T12:38:03;11.00;99.90
21417;DHT22;10869;52.238;10.716;2024-01-30T12:40:29;11.00;99.90
21417;DHT22;10869;52.238;10.716;2024-01-30T12:42:55;11.10;99.90
21417;DHT22;10869;52.238;10.716;2024-01-30T12:45:21;11.10;99.90
21417;DHT22;10869;52.238;10.716;2024-01-30T12:47:50;11.10;99.90
21417;DHT22;10869;52.238;10.716;2024-01-30T12:50:17;11.10;99.90
21417;DHT22;10869;52.238;10.716;2024-01-30T12:55:18;11.10;99.90
21417;DHT22;10869;52.238;10.716;2024-01-30T12:57:44;11.10;99.90
21417;DHT22;10869;52.238;10.716;2024-01-30T13:00:10;11.10;99.90
21417;DHT22;10869;52.238;10.716;2024-01-30T13:02:36;11.10;99.90
21417;DHT22;10869;52.238;10.716;2024-01-30T13:05:03;11.00;99.90
21417;DHT22;10869;52.238;10.716;2024-01-30T13:07:30;11.00;99.90
21417;DHT22;10869;52.238;10.716;2024-01-30T13:09:56;11.00;99.90
21417;DHT22;10869;52.238;10.716;2024-01-30T13:12:28;11.00;99.90
21417;DHT22;10869;52.238;10.716;2024-01-30T13:14:54;11.00;99.90
21417;DHT22;10869;52.238;10.716;2024-01-30T13:17:20;11.00;99.90
21417;DHT22;10869;52.238;10.716;2024-01-30T13:19:46;11.00;99.90
21417;DHT22;10869;52.238;10.716;2024-01-30T13:22:14;11.00;99.90
21417;DHT22;10869;52.238;10.716;2024-01-30T13:24:40;11.00;99.90
21417;DHT22;10869;52.238;10.716;2024-01-30T13:27:06;11.00;99.90
21417;DHT22;10869;52.238;10.716;2024-01-30T13:29:32;11.10;99.90
21417;DHT22;10869;52.238;10.716;2024-01-30T13:35:21;11.10;99.90
21417;DHT22;10869;52.238;10.716;2024-01-30T13:37:47;11.10;99.90
21417;DHT22;10869;52.238;10.716;2024-01-30T13:45:25;11.00;99.90
21417;DHT22;10869;52.238;10.716;2024-01-30T13:47:52;11.00;99.90
21417;DHT22;10869;52.238;10.716;2024-01-30T13:50:19;10.90;99.90
21417;DHT22;10869;52.238;10.716;2024-01-30T13:52:48;10.90;99.90
21417;DHT22;10869;52.238;10.716;2024-01-30T13:55:14;10.90;99.90
21417;DHT22;10869;52.238;10.716;2024-01-30T13:57:40;10.80;99.90
21417;DHT22;10869;52.238;10.716;2024-01-30T14:00:07;10.80;99.90
21417;DHT22;10869;52.238;10.716;2024-01-30T14:15:30;10.70;99.90
21417;DHT22;10869;52.238;10.716;2024-01-30T14:17:56;10.70;99.90
21417;DHT22;10869;52.238;10.716;2024-01-30T14:20:21;10.70;99.90
21417;DHT22;10869;52.238;10.716;2024-01-30T14:22:47;10.70;99.90
21417;DHT22;10869;52.238;10.716;2024-01-30T14:25:13;10.70;99.90
21417;DHT22;10869;52.238;10.716;2024-01-30T15:35:00;9.80;99.90
21417;DHT22;10869;52.238;10.716;2024-01-30T15:37:32;9.70;99.90
21417;DHT22;10869;52.238;10.716;2024-01-30T15:40:01;9.60;99.90
21417;DHT22;10869;52.238;10.716;2024-01-30T15:42:28;9.60;99.90
21417;DHT22;10869;52.238;10.716;2024-01-30T15:44:53;9.60;99.90
21417;DHT22;10869;52.238;10.716;2024-01-30T15:47:19;9.50;99.90
21417;DHT22;10869;52.238;10.716;2024-01-30T15:49:45;9.50;99.90
21417;DHT22;10869;52.238;10.716;2024-01-30T15:52:11;9.50;99.90
21417;DHT22;10869;52.238;10.716;2024-01-30T16:56:49;9.30;99.90
21417;DHT22;10869;52.238;10.716;2024-01-30T16:59:16;9.30;99.90
21417;DHT22;10869;52.238;10.716;2024-01-30T17:01:41;9.30;99.90
21417;DHT22;10869;52.238;10.716;2024-01-30T17:04:11;9.40;99.90
21417;DHT22;10869;52.238;10.716;2024-01-30T17:06:37;9.40;99.90
21417;DHT22;10869;52.238;10.716;2024-01-30T17:09:03;9.40;99.90
21417;DHT22;10869;52.238;10.716;2024-01-30T17:11:29;9.40;99.90
21417;DHT22;10869;52.238;10.716;2024-01-30T17:13:55;9.50;99.90
21417;DHT22;10869;52.238;10.716;2024-01-30T17:16:20;9.50;99.90
21417;DHT22;10869;52.238;10.716;2024-01-30T17:18:46;9.50;99.90
21417;DHT22;10869;52.238;10.716;2024-01-30T17:21:22;9.50;99.90
21417;DHT22;10869;52.238;10.716;2024-01-30T17:23:48;9.50;99.90
21417;DHT22;10869;52.238;10.716;2024-01-30T17:26:14;9.50;99.90
21417;DHT22;10869;52.238;10.716;2024-01-30T17:28:39;9.50;99.90
21417;DHT22;10869;52.238;10.716;2024-01-30T17:34:27;9.50;99.90
21417;DHT22;10869;52.238;10.716;2024-01-30T17:40:15;9.50;99.90
21417;DHT22;10869;52.238;10.716;2024-01-30T17:42:40;9.50;99.90
21417;DHT22;10869;52.238;10.716;2024-01-30T17:45:06;9.40;99.90
21417;DHT22;10869;52.238;10.716;2024-01-30T17:47:32;9.40;99.90
21417;DHT22;10869;52.238;10.716;2024-01-30T17:49:58;9.40;99.90
21417;DHT22;10869;52.238;10.716;2024-01-30T17:52:24;9.40;99.90
21417;DHT22;10869;52.238;10.716;2024-01-30T17:54:49;9.40;99.90
21417;DHT22;10869;52.238;10.716;2024-01-30T17:57:15;9.30;99.90
21417;DHT22;10869;52.238;10.716;2024-01-30T17:59:42;9.30;99.90
21417;DHT22;10869;52.238;10.716;2024-01-30T18:02:08;9.30;99.90
21417;DHT22;10869;52.238;10.716;2024-01-30T18:04:37;9.20;99.90
21417;DHT22;10869;52.238;10.716;2024-01-30T18:07:05;9.20;99.90
21417;DHT22;10869;52.238;10.716;2024-01-30T18:09:31;9.20;99.90
21417;DHT22;10869;52.238;10.716;2024-01-30T18:11:56;9.10;99.90
21417;DHT22;10869;52.238;10.716;2024-01-30T18:14:23;9.10;99.90
21417;DHT22;10869;52.238;10.716;2024-01-30T18:16:49;9.00;99.90
21417;DHT22;10869;52.238;10.716;2024-01-30T18:24:25;8.90;99.90
21417;DHT22;10869;52.238;10.716;2024-01-30T18:26:52;8.90;99.90
21417;DHT22;10869;52.238;10.716;2024-01-30T18:29:18;8.90;99.90
21417;DHT22;10869;52.238;10.716;2024-01-30T18:31:44;8.90;99.90
21417;DHT22;10869;52.238;10.716;2024-01-30T18:36:54;8.90;99.90
21417;DHT22;10869;52.238;10.716;2024-01-30T18:42:12;8.90;99.90
21417;DHT22;10869;52.238;10.716;2024-01-30T18:44:42;8.90;99.90
21417;DHT22;10869;52.238;10.716;2024-01-30T18:47:12;8.80;99.90
21417;DHT22;10869;52.238;10.716;2024-01-30T18:49:40;8.80;99.90
21417;DHT22;10869;52.238;10.716;2024-01-30T18:52:06;8.80;99.90
21417;DHT22;10869;52.238;10.716;2024-01-30T18:54:33;8.80;99.90
21417;DHT22;10869;52.238;10.716;2024-01-30T18:56:59;8.80;99.90
21417;DHT22;10869;52.238;10.716;2024-01-30T18:59:25;8.70;99.90
21417;DHT22;10869;52.238;10.716;2024-01-30T19:01:51;8.70;99.90
21417;DHT22;10869;52.238;10.716;2024-01-30T19:04:17;8.70;99.90
21417;DHT22;10869;52.238;10.716;2024-01-30T19:06:43;8.70;99.90
21417;DHT22;10869;52.238;10.716;2024-01-30T19:09:10;8.70;99.90
21417;DHT22;10869;52.238;10.716;2024-01-30T19:14:58;8.60;99.90
21417;DHT22;10869;52.238;10.716;2024-01-30T19:17:23;8.50;99.90
21417;DHT22;10869;52.238;10.716;2024-01-30T19:19:51;8.50;99.90
21417;DHT22;10869;52.238;10.716;2024-01-30T19:22:24;8.50;99.90
21417;DHT22;10869;52.238;10.716;2024-01-30T19:25:13;8.50;99.90
21417;DHT22;10869;52.238;10.716;2024-01-30T19:27:40;8.50;99.90
21417;DHT22;10869;52.238;10.716;2024-01-30T19:30:07;8.50;99.90
21417;DHT22;10869;52.238;10.716;2024-01-30T19:32:37;8.50;99.90
21417;DHT22;10869;52.238;10.716;2024-01-30T19:37:38;8.60;99.90
21417;DHT22;10869;52.238;10.716;2024-01-30T19:40:05;8.50;99.90
21417;DHT22;10869;52.238;10.716;2024-01-30T19:42:31;8.50;99.90
21417;DHT22;10869;52.238;10.716;2024-01-30T19:44:57;8.50;99.90
21417;DHT22;10869;52.238;10.716;2024-01-30T19:50:44;8.40;99.90
21417;DHT22;10869;52.238;10.716;2024-01-30T19:56:32;8.40;99.90
21417;DHT22;10869;52.238;10.716;2024-01-30T19:58:58;8.50;99.90
21417;DHT22;10869;52.238;10.716;2024-01-30T20:01:23;8.50;99.90
21417;DHT22;10869;52.238;10.716;2024-01-30T20:03:49;8.50;99.90
21417;DHT22;10869;52.238;10.716;2024-01-30T20:06:15;8.50;99.90
21417;DHT22;10869;52.238;10.716;2024-01-30T20:08:40;8.50;99.90
21417;DHT22;10869;52.238;10.716;2024-01-30T20:11:15;8.60;99.90
21417;DHT22;10869;52.238;10.716;2024-01-30T20:13:41;8.50;99.90
21417;DHT22;10869;52.238;10.716;2024-01-30T20:16:07;8.50;99.90
21417;DHT22;10869;52.238;10.716;2024-01-30T20:18:33;8.40;99.90
21417;DHT22;10869;52.238;10.716;2024-01-30T20:20:59;8.40;99.90
21417;DHT22;10869;52.238;10.716;2024-01-30T20:26:47;8.30;99.90
21417;DHT22;10869;52.238;10.716;2024-01-30T20:34:23;8.20;99.90
21417;DHT22;10869;52.238;10.716;2024-01-30T20:36:49;8.10;99.90
21417;DHT22;10869;52.238;10.716;2024-01-30T20:39:15;8.10;99.90
21417;DHT22;10869;52.238;10.716;2024-01-30T20:41:44;8.00;99.90
21417;DHT22;10869;52.238;10.716;2024-01-30T20:44:12;8.00;99.90
21417;DHT22;10869;52.238;10.716;2024-01-30T20:54:28;7.80;99.90
21417;DHT22;10869;52.238;10.716;2024-01-30T20:59:40;7.70;99.90
21417;DHT22;10869;52.238;10.716;2024-01-30T21:07:52;7.70;99.90
21417;DHT22;10869;52.238;10.716;2024-01-30T21:10:49;7.60;99.90
21417;DHT22;10869;52.238;10.716;2024-01-30T21:49:51;7.70;99.90
21417;DHT22;10869;52.238;10.716;2024-01-30T21:52:17;7.70;99.90
21417;DHT22;10869;52.238;10.716;2024-01-30T21:54:43;7.80;99.90
21417;DHT22;10869;52.238;10.716;2024-01-30T21:57:15;7.80;99.90
21417;DHT22;10869;52.238;10.716;2024-01-30T21:59:41;7.90;99.90
21417;DHT22;10869;52.238;10.716;2024-01-30T22:02:08;7.90;99.90
21417;DHT22;10869;52.238;10.716;2024-01-30T22:04:34;8.00;99.90
21417;DHT22;10869;52.238;10.716;2024-01-30T22:07:00;8.00;99.90
21417;DHT22;10869;52.238;10.716;2024-01-30T22:14:37;8.00;99.90
21417;DHT22;10869;52.238;10.716;2024-01-30T22:17:03;8.00;99.90
21417;DHT22;10869;52.238;10.716;2024-01-30T22:19:29;8.10;99.90
21417;DHT22;10869;52.238;10.716;2024-01-30T22:21:54;8.00;99.90
21417;DHT22;10869;52.238;10.716;2024-01-30T22:24:23;8.10;99.90
21417;DHT22;10869;52.238;10.716;2024-01-30T22:26:52;8.10;99.90
21417;DHT22;10869;52.238;10.716;2024-01-30T22:29:18;8.10;99.90
21417;DHT22;10869;52.238;10.716;2024-01-30T22:31:44;8.10;99.90
21417;DHT22;10869;52.238;10.716;2024-01-30T22:37:32;8.10;99.90
21417;DHT22;10869;52.238;10.716;2024-01-30T22:39:58;8.10;99.90
21417;DHT22;10869;52.238;10.716;2024-01-30T22:42:23;8.00;99.90
21417;DHT22;10869;52.238;10.716;2024-01-30T22:47:31;8.00;99.90
21417;DHT22;10869;52.238;10.716;2024-01-30T22:49:57;8.00;99.90
21417;DHT22;10869;52.238;10.716;2024-01-30T22:52:22;7.90;99.90
21417;DHT22;10869;52.238;10.716;2024-01-30T22:54:48;8.00;99.90
21417;DHT22;10869;52.238;10.716;2024-01-30T22:57:14;7.90;99.90
21417;DHT22;10869;52.238;10.716;2024-01-30T22:59:40;7.90;99.90
21417;DHT22;10869;52.238;10.716;2024-01-30T23:02:06;7.90;99.90